sensor_id;sensor_type;location;lat;lon;timestamp;P1;durP1;ratioP1;P2;durP2;ratioP2
9997;SDS011;5038;53.064;8.624;2023-11-22T00:02:08;14.23;;;11.10;;
9997;SDS011;5038;53.064;8.624;2023-11-22T00:04:36;13.50;;;11.10;;
9997;SDS011;5038;53.064;8.624;2023-11-22T00:07:05;15.63;;;12.20;;
9997;SDS011;5038;53.064;8.624;2023-11-22T00:09:33;14.10;;;12.03;;
9997;SDS011;5038;53.064;8.624;2023-11-22T00:12:02;14.70;;;11.07;;
9997;SDS011;5038;53.064;8.624;2023-11-22T00:14:31;14.23;;;11.13;;
9997;SDS011;5038;53.064;8.624;2023-11-22T00:17:00;15.73;;;11.83;;
9997;SDS011;5038;53.064;8.624;2023-11-22T00:19:28;14.10;;;11.37;;
9997;SDS011;5038;53.064;8.624;2023-11-22T00:21:57;15.07;;;11.23;;
9997;SDS011;5038;53.064;8.624;2023-11-22T00:24:25;12.37;;;11.07;;
9997;SDS011;5038;53.064;8.624;2023-11-22T00:26:53;15.33;;;11.87;;
9997;SDS011;5038;53.064;8.624;2023-11-22T00:29:22;13.03;;;11.60;;
9997;SDS011;5038;53.064;8.624;2023-11-22T00:31:52;12.30;;;10.53;;
9997;SDS011;5038;53.064;8.624;2023-11-22T00:34:20;16.03;;;12.20;;
9997;SDS011;5038;53.064;8.624;2023-11-22T00:36:49;18.70;;;13.03;;
9997;SDS011;5038;53.064;8.624;2023-11-22T00:39:18;13.90;;;11.87;;
9997;SDS011;5038;53.064;8.624;2023-11-22T00:41:46;13.93;;;11.80;;
9997;SDS011;5038;53.064;8.624;2023-11-22T00:44:14;13.23;;;11.20;;
9997;SDS011;5038;53.064;8.624;2023-11-22T00:46:43;13.47;;;10.27;;
9997;SDS011;5038;53.064;8.624;2023-11-22T00:49:13;15.40;;;11.67;;
9997;SDS011;5038;53.064;8.624;2023-11-22T00:51:41;14.40;;;11.90;;
9997;SDS011;5038;53.064;8.624;2023-11-22T00:54:11;15.43;;;11.10;;
9997;SDS011;5038;53.064;8.624;2023-11-22T00:56:39;11.83;;;9.77;;
9997;SDS011;5038;53.064;8.624;2023-11-22T00:59:08;13.27;;;10.50;;
9997;SDS011;5038;53.064;8.624;2023-11-22T01:01:36;12.40;;;9.77;;
9997;SDS011;5038;53.064;8.624;2023-11-22T01:04:04;13.77;;;11.37;;
9997;SDS011;5038;53.064;8.624;2023-11-22T01:06:35;13.47;;;10.30;;
9997;SDS011;5038;53.064;8.624;2023-11-22T01:09:04;11.23;;;9.50;;
9997;SDS011;5038;53.064;8.624;2023-11-22T01:11:35;12.87;;;11.43;;
9997;SDS011;5038;53.064;8.624;2023-11-22T01:14:04;15.27;;;11.63;;
9997;SDS011;5038;53.064;8.624;2023-11-22T01:16:32;13.53;;;10.90;;
9997;SDS011;5038;53.064;8.624;2023-11-22T01:19:03;19.30;;;13.23;;
9997;SDS011;5038;53.064;8.624;2023-11-22T01:21:31;15.00;;;12.67;;
9997;SDS011;5038;53.064;8.624;2023-11-22T01:24:01;15.40;;;13.10;;
9997;SDS011;5038;53.064;8.624;2023-11-22T01:26:29;18.37;;;14.80;;
9997;SDS011;5038;53.064;8.624;2023-11-22T01:28:57;14.40;;;12.90;;
9997;SDS011;5038;53.064;8.624;2023-11-22T01:31:26;15.77;;;12.67;;
9997;SDS011;5038;53.064;8.624;2023-11-22T01:33:55;15.00;;;12.80;;
9997;SDS011;5038;53.064;8.624;2023-11-22T01:36:23;15.10;;;11.90;;
9997;SDS011;5038;53.064;8.624;2023-11-22T01:38:52;15.23;;;11.03;;
9997;SDS011;5038;53.064;8.624;2023-11-22T01:41:21;13.80;;;11.70;;
9997;SDS011;5038;53.064;8.624;2023-11-22T01:43:50;14.03;;;10.60;;
9997;SDS011;5038;53.064;8.624;2023-11-22T01:46:21;15.27;;;11.20;;
9997;SDS011;5038;53.064;8.624;2023-11-22T01:48:50;12.60;;;10.47;;
9997;SDS011;5038;53.064;8.624;2023-11-22T01:51:20;13.60;;;11.30;;
9997;SDS011;5038;53.064;8.624;2023-11-22T01:53:50;13.13;;;11.40;;
9997;SDS011;5038;53.064;8.624;2023-11-22T01:56:22;13.23;;;11.47;;
9997;SDS011;5038;53.064;8.624;2023-11-22T01:58:52;13.93;;;10.40;;
9997;SDS011;5038;53.064;8.624;2023-11-22T02:01:24;16.17;;;11.20;;
9997;SDS011;5038;53.064;8.624;2023-11-22T02:03:53;15.27;;;11.40;;
9997;SDS011;5038;53.064;8.624;2023-11-22T02:06:22;14.20;;;9.67;;
9997;SDS011;5038;53.064;8.624;2023-11-22T02:08:50;13.33;;;10.83;;
9997;SDS011;5038;53.064;8.624;2023-11-22T02:11:19;11.73;;;8.50;;
9997;SDS011;5038;53.064;8.624;2023-11-22T02:13:50;12.70;;;10.87;;
9997;SDS011;5038;53.064;8.624;2023-11-22T02:16:20;15.70;;;10.97;;
9997;SDS011;5038;53.064;8.624;2023-11-22T02:18:48;15.90;;;10.60;;
9997;SDS011;5038;53.064;8.624;2023-11-22T02:21:17;14.90;;;11.07;;
9997;SDS011;5038;53.064;8.624;2023-11-22T02:23:46;12.47;;;9.50;;
9997;SDS011;5038;53.064;8.624;2023-11-22T02:26:15;12.50;;;9.97;;
9997;SDS011;5038;53.064;8.624;2023-11-22T02:28:44;11.13;;;9.60;;
9997;SDS011;5038;53.064;8.624;2023-11-22T02:31:15;12.50;;;9.80;;
9997;SDS011;5038;53.064;8.624;2023-11-22T02:33:44;12.03;;;10.13;;
9997;SDS011;5038;53.064;8.624;2023-11-22T02:36:12;12.50;;;10.00;;
9997;SDS011;5038;53.064;8.624;2023-11-22T02:38:40;12.87;;;9.87;;
9997;SDS011;5038;53.064;8.624;2023-11-22T02:41:12;12.37;;;10.00;;
9997;SDS011;5038;53.064;8.624;2023-11-22T02:43:40;13.13;;;10.57;;
9997;SDS011;5038;53.064;8.624;2023-11-22T02:46:08;9.93;;;8.90;;
9997;SDS011;5038;53.064;8.624;2023-11-22T02:48:36;14.77;;;11.70;;
9997;SDS011;5038;53.064;8.624;2023-11-22T02:51:05;13.30;;;10.10;;
9997;SDS011;5038;53.064;8.624;2023-11-22T02:53:34;10.33;;;8.47;;
9997;SDS011;5038;53.064;8.624;2023-11-22T02:56:02;13.07;;;10.00;;
9997;SDS011;5038;53.064;8.624;2023-11-22T02:58:33;16.60;;;10.23;;
9997;SDS011;5038;53.064;8.624;2023-11-22T03:01:01;13.70;;;7.97;;
9997;SDS011;5038;53.064;8.624;2023-11-22T03:03:30;14.30;;;10.60;;
9997;SDS011;5038;53.064;8.624;2023-11-22T03:05:58;13.37;;;9.73;;
9997;SDS011;5038;53.064;8.624;2023-11-22T03:08:26;13.33;;;9.73;;
9997;SDS011;5038;53.064;8.624;2023-11-22T03:10:54;12.77;;;9.97;;
9997;SDS011;5038;53.064;8.624;2023-11-22T03:13:22;12.40;;;9.60;;
9997;SDS011;5038;53.064;8.624;2023-11-22T03:15:52;13.50;;;10.03;;
9997;SDS011;5038;53.064;8.624;2023-11-22T03:18:21;16.10;;;10.50;;
9997;SDS011;5038;53.064;8.624;2023-11-22T03:20:50;13.80;;;10.00;;
9997;SDS011;5038;53.064;8.624;2023-11-22T03:23:21;17.30;;;11.83;;
9997;SDS011;5038;53.064;8.624;2023-11-22T03:25:49;15.20;;;9.77;;
9997;SDS011;5038;53.064;8.624;2023-11-22T03:28:16;12.43;;;9.90;;
9997;SDS011;5038;53.064;8.624;2023-11-22T03:30:44;11.80;;;9.50;;
9997;SDS011;5038;53.064;8.624;2023-11-22T03:33:15;12.30;;;10.37;;
9997;SDS011;5038;53.064;8.624;2023-11-22T03:35:43;13.93;;;9.77;;
9997;SDS011;5038;53.064;8.624;2023-11-22T03:38:12;14.60;;;9.90;;
9997;SDS011;5038;53.064;8.624;2023-11-22T03:40:40;13.27;;;9.80;;
9997;SDS011;5038;53.064;8.624;2023-11-22T03:43:08;14.47;;;10.83;;
9997;SDS011;5038;53.064;8.624;2023-11-22T03:45:37;13.20;;;10.97;;
9997;SDS011;5038;53.064;8.624;2023-11-22T03:48:05;16.10;;;11.47;;
9997;SDS011;5038;53.064;8.624;2023-11-22T03:50:34;12.70;;;9.80;;
9997;SDS011;5038;53.064;8.624;2023-11-22T03:53:03;13.50;;;10.87;;
9997;SDS011;5038;53.064;8.624;2023-11-22T03:55:31;14.63;;;11.40;;
9997;SDS011;5038;53.064;8.624;2023-11-22T03:57:59;12.50;;;9.60;;
9997;SDS011;5038;53.064;8.624;2023-11-22T04:00:27;14.10;;;9.50;;
9997;SDS011;5038;53.064;8.624;2023-11-22T04:02:55;13.70;;;9.60;;
9997;SDS011;5038;53.064;8.624;2023-11-22T04:05:26;11.93;;;10.30;;
9997;SDS011;5038;53.064;8.624;2023-11-22T04:07:56;13.40;;;10.23;;
9997;SDS011;5038;53.064;8.624;2023-11-22T04:10:25;13.37;;;11.47;;
9997;SDS011;5038;53.064;8.624;2023-11-22T04:12:53;16.67;;;11.33;;
9997;SDS011;5038;53.064;8.624;2023-11-22T04:15:21;18.83;;;11.83;;
9997;SDS011;5038;53.064;8.624;2023-11-22T04:17:50;13.77;;;11.00;;
9997;SDS011;5038;53.064;8.624;2023-11-22T04:20:21;20.70;;;14.57;;
9997;SDS011;5038;53.064;8.624;2023-11-22T04:22:49;16.43;;;13.00;;
9997;SDS011;5038;53.064;8.624;2023-11-22T04:25:19;15.30;;;12.37;;
9997;SDS011;5038;53.064;8.624;2023-11-22T04:27:47;14.70;;;11.93;;
9997;SDS011;5038;53.064;8.624;2023-11-22T04:30:15;17.57;;;13.07;;
9997;SDS011;5038;53.064;8.624;2023-11-22T04:32:43;22.50;;;16.30;;
9997;SDS011;5038;53.064;8.624;2023-11-22T04:35:13;19.70;;;15.20;;
9997;SDS011;5038;53.064;8.624;2023-11-22T04:37:41;17.77;;;13.50;;
9997;SDS011;5038;53.064;8.624;2023-11-22T04:40:10;13.70;;;10.13;;
9997;SDS011;5038;53.064;8.624;2023-11-22T04:42:42;13.50;;;11.60;;
9997;SDS011;5038;53.064;8.624;2023-11-22T04:45:11;13.53;;;11.00;;
9997;SDS011;5038;53.064;8.624;2023-11-22T04:47:39;14.57;;;10.30;;
9997;SDS011;5038;53.064;8.624;2023-11-22T04:50:08;13.60;;;11.23;;
9997;SDS011;5038;53.064;8.624;2023-11-22T04:52:37;14.50;;;10.90;;
9997;SDS011;5038;53.064;8.624;2023-11-22T04:55:06;14.53;;;10.80;;
9997;SDS011;5038;53.064;8.624;2023-11-22T04:57:34;12.93;;;10.30;;
9997;SDS011;5038;53.064;8.624;2023-11-22T05:00:05;17.20;;;11.43;;
9997;SDS011;5038;53.064;8.624;2023-11-22T05:02:34;15.47;;;11.07;;
9997;SDS011;5038;53.064;8.624;2023-11-22T05:05:02;16.97;;;12.10;;
9997;SDS011;5038;53.064;8.624;2023-11-22T05:07:31;15.93;;;13.87;;
9997;SDS011;5038;53.064;8.624;2023-11-22T05:09:59;18.13;;;12.83;;
9997;SDS011;5038;53.064;8.624;2023-11-22T05:12:28;18.70;;;14.47;;
9997;SDS011;5038;53.064;8.624;2023-11-22T05:14:56;18.07;;;13.60;;
9997;SDS011;5038;53.064;8.624;2023-11-22T05:17:26;17.83;;;13.90;;
9997;SDS011;5038;53.064;8.624;2023-11-22T05:19:54;20.93;;;15.00;;
9997;SDS011;5038;53.064;8.624;2023-11-22T05:22:22;17.90;;;14.93;;
9997;SDS011;5038;53.064;8.624;2023-11-22T05:24:50;15.67;;;13.43;;
9997;SDS011;5038;53.064;8.624;2023-11-22T05:27:19;16.40;;;13.00;;
9997;SDS011;5038;53.064;8.624;2023-11-22T05:29:47;17.37;;;13.47;;
9997;SDS011;5038;53.064;8.624;2023-11-22T05:32:20;17.27;;;13.80;;
9997;SDS011;5038;53.064;8.624;2023-11-22T05:34:50;20.60;;;15.63;;
9997;SDS011;5038;53.064;8.624;2023-11-22T05:37:18;21.00;;;16.27;;
9997;SDS011;5038;53.064;8.624;2023-11-22T05:39:50;16.30;;;13.40;;
9997;SDS011;5038;53.064;8.624;2023-11-22T05:42:18;19.83;;;14.73;;
9997;SDS011;5038;53.064;8.624;2023-11-22T05:44:46;18.20;;;13.13;;
9997;SDS011;5038;53.064;8.624;2023-11-22T05:47:16;17.63;;;12.50;;
9997;SDS011;5038;53.064;8.624;2023-11-22T05:49:45;22.97;;;16.20;;
9997;SDS011;5038;53.064;8.624;2023-11-22T05:52:14;18.50;;;13.63;;
9997;SDS011;5038;53.064;8.624;2023-11-22T05:54:43;16.53;;;11.67;;
9997;SDS011;5038;53.064;8.624;2023-11-22T05:57:11;14.73;;;11.10;;
9997;SDS011;5038;53.064;8.624;2023-11-22T05:59:39;16.60;;;11.77;;
9997;SDS011;5038;53.064;8.624;2023-11-22T06:02:07;14.37;;;11.00;;
9997;SDS011;5038;53.064;8.624;2023-11-22T06:04:36;15.00;;;12.27;;
9997;SDS011;5038;53.064;8.624;2023-11-22T06:07:07;16.03;;;11.20;;
9997;SDS011;5038;53.064;8.624;2023-11-22T06:09:37;14.90;;;11.53;;
9997;SDS011;5038;53.064;8.624;2023-11-22T06:12:06;15.90;;;12.30;;
9997;SDS011;5038;53.064;8.624;2023-11-22T06:14:34;14.83;;;11.60;;
9997;SDS011;5038;53.064;8.624;2023-11-22T06:17:03;15.20;;;12.20;;
9997;SDS011;5038;53.064;8.624;2023-11-22T06:19:31;13.70;;;11.87;;
9997;SDS011;5038;53.064;8.624;2023-11-22T06:21:59;16.23;;;12.43;;
9997;SDS011;5038;53.064;8.624;2023-11-22T06:24:28;18.90;;;14.60;;
9997;SDS011;5038;53.064;8.624;2023-11-22T06:26:58;22.80;;;16.03;;
9997;SDS011;5038;53.064;8.624;2023-11-22T06:29:27;27.90;;;20.03;;
9997;SDS011;5038;53.064;8.624;2023-11-22T06:31:55;20.07;;;16.57;;
9997;SDS011;5038;53.064;8.624;2023-11-22T06:34:23;18.87;;;13.90;;
9997;SDS011;5038;53.064;8.624;2023-11-22T06:36:51;19.43;;;14.00;;
9997;SDS011;5038;53.064;8.624;2023-11-22T06:39:19;14.93;;;11.57;;
9997;SDS011;5038;53.064;8.624;2023-11-22T06:41:49;15.97;;;12.87;;
9997;SDS011;5038;53.064;8.624;2023-11-22T06:44:18;17.47;;;12.87;;
9997;SDS011;5038;53.064;8.624;2023-11-22T06:46:46;17.03;;;12.97;;
9997;SDS011;5038;53.064;8.624;2023-11-22T06:49:15;14.90;;;11.17;;
9997;SDS011;5038;53.064;8.624;2023-11-22T06:51:43;19.00;;;12.60;;
9997;SDS011;5038;53.064;8.624;2023-11-22T06:54:11;19.70;;;13.20;;
9997;SDS011;5038;53.064;8.624;2023-11-22T06:56:39;15.20;;;13.30;;
9997;SDS011;5038;53.064;8.624;2023-11-22T06:59:07;18.30;;;13.53;;
9997;SDS011;5038;53.064;8.624;2023-11-22T07:01:37;15.30;;;12.57;;
9997;SDS011;5038;53.064;8.624;2023-11-22T07:04:06;19.53;;;13.57;;
9997;SDS011;5038;53.064;8.624;2023-11-22T07:06:34;19.03;;;14.23;;
9997;SDS011;5038;53.064;8.624;2023-11-22T07:09:03;18.70;;;13.37;;
9997;SDS011;5038;53.064;8.624;2023-11-22T07:11:32;16.00;;;12.53;;
9997;SDS011;5038;53.064;8.624;2023-11-22T07:14:00;15.97;;;13.50;;
9997;SDS011;5038;53.064;8.624;2023-11-22T07:16:30;21.00;;;13.83;;
9997;SDS011;5038;53.064;8.624;2023-11-22T07:19:00;19.90;;;13.80;;
9997;SDS011;5038;53.064;8.624;2023-11-22T07:21:29;19.20;;;14.90;;
9997;SDS011;5038;53.064;8.624;2023-11-22T07:23:57;19.10;;;14.70;;
9997;SDS011;5038;53.064;8.624;2023-11-22T07:26:26;18.40;;;15.23;;
9997;SDS011;5038;53.064;8.624;2023-11-22T07:28:54;17.43;;;13.03;;
9997;SDS011;5038;53.064;8.624;2023-11-22T07:31:22;16.30;;;13.70;;
9997;SDS011;5038;53.064;8.624;2023-11-22T07:33:51;15.30;;;12.27;;
9997;SDS011;5038;53.064;8.624;2023-11-22T07:36:21;16.70;;;12.87;;
9997;SDS011;5038;53.064;8.624;2023-11-22T07:38:49;11.87;;;9.87;;
9997;SDS011;5038;53.064;8.624;2023-11-22T07:41:20;15.47;;;11.70;;
9997;SDS011;5038;53.064;8.624;2023-11-22T07:43:48;14.67;;;12.63;;
9997;SDS011;5038;53.064;8.624;2023-11-22T07:46:17;19.80;;;12.70;;
9997;SDS011;5038;53.064;8.624;2023-11-22T07:48:45;15.30;;;11.47;;
9997;SDS011;5038;53.064;8.624;2023-11-22T07:51:15;17.60;;;12.87;;
9997;SDS011;5038;53.064;8.624;2023-11-22T07:53:45;16.00;;;12.63;;
9997;SDS011;5038;53.064;8.624;2023-11-22T07:56:15;15.23;;;13.20;;
9997;SDS011;5038;53.064;8.624;2023-11-22T07:58:45;18.00;;;12.83;;
9997;SDS011;5038;53.064;8.624;2023-11-22T08:01:13;18.53;;;13.67;;
9997;SDS011;5038;53.064;8.624;2023-11-22T08:03:41;17.30;;;13.80;;
9997;SDS011;5038;53.064;8.624;2023-11-22T08:06:13;17.87;;;13.27;;
9997;SDS011;5038;53.064;8.624;2023-11-22T08:08:42;16.03;;;13.80;;
9997;SDS011;5038;53.064;8.624;2023-11-22T08:11:14;18.33;;;13.50;;
9997;SDS011;5038;53.064;8.624;2023-11-22T08:13:43;16.57;;;14.17;;
9997;SDS011;5038;53.064;8.624;2023-11-22T08:16:12;14.87;;;13.07;;
9997;SDS011;5038;53.064;8.624;2023-11-22T08:18:40;16.20;;;13.60;;
9997;SDS011;5038;53.064;8.624;2023-11-22T08:21:10;17.13;;;13.23;;
9997;SDS011;5038;53.064;8.624;2023-11-22T08:23:38;14.83;;;12.93;;
9997;SDS011;5038;53.064;8.624;2023-11-22T08:26:07;15.00;;;13.47;;
9997;SDS011;5038;53.064;8.624;2023-11-22T08:28:37;13.90;;;12.40;;
9997;SDS011;5038;53.064;8.624;2023-11-22T08:31:05;14.83;;;12.30;;
9997;SDS011;5038;53.064;8.624;2023-11-22T08:33:36;13.97;;;12.40;;
9997;SDS011;5038;53.064;8.624;2023-11-22T08:36:05;14.37;;;12.43;;
9997;SDS011;5038;53.064;8.624;2023-11-22T08:38:34;16.23;;;12.80;;
9997;SDS011;5038;53.064;8.624;2023-11-22T08:41:03;17.77;;;13.60;;
9997;SDS011;5038;53.064;8.624;2023-11-22T08:43:32;14.00;;;12.60;;
9997;SDS011;5038;53.064;8.624;2023-11-22T08:46:02;14.80;;;11.90;;
9997;SDS011;5038;53.064;8.624;2023-11-22T08:48:40;16.20;;;12.43;;
9997;SDS011;5038;53.064;8.624;2023-11-22T08:51:09;14.00;;;11.90;;
9997;SDS011;5038;53.064;8.624;2023-11-22T08:53:38;15.27;;;12.03;;
9997;SDS011;5038;53.064;8.624;2023-11-22T08:56:06;15.87;;;12.80;;
9997;SDS011;5038;53.064;8.624;2023-11-22T08:58:36;15.87;;;12.47;;
9997;SDS011;5038;53.064;8.624;2023-11-22T09:01:07;13.80;;;12.10;;
9997;SDS011;5038;53.064;8.624;2023-11-22T09:03:35;14.57;;;12.90;;
9997;SDS011;5038;53.064;8.624;2023-11-22T09:06:04;16.07;;;13.40;;
9997;SDS011;5038;53.064;8.624;2023-11-22T09:08:34;15.33;;;13.00;;
9997;SDS011;5038;53.064;8.624;2023-11-22T09:11:03;18.10;;;14.73;;
9997;SDS011;5038;53.064;8.624;2023-11-22T09:13:33;17.00;;;13.80;;
9997;SDS011;5038;53.064;8.624;2023-11-22T09:16:01;15.80;;;12.33;;
9997;SDS011;5038;53.064;8.624;2023-11-22T09:18:33;14.50;;;12.50;;
9997;SDS011;5038;53.064;8.624;2023-11-22T09:21:01;15.33;;;12.17;;
9997;SDS011;5038;53.064;8.624;2023-11-22T09:23:29;15.50;;;11.33;;
9997;SDS011;5038;53.064;8.624;2023-11-22T09:25:57;16.43;;;12.47;;
9997;SDS011;5038;53.064;8.624;2023-11-22T09:28:27;14.10;;;12.30;;
9997;SDS011;5038;53.064;8.624;2023-11-22T09:30:55;14.50;;;11.93;;
9997;SDS011;5038;53.064;8.624;2023-11-22T09:33:33;14.10;;;11.40;;
9997;SDS011;5038;53.064;8.624;2023-11-22T09:36:01;13.33;;;11.83;;
9997;SDS011;5038;53.064;8.624;2023-11-22T09:38:35;15.07;;;11.83;;
9997;SDS011;5038;53.064;8.624;2023-11-22T09:41:04;14.87;;;11.73;;
9997;SDS011;5038;53.064;8.624;2023-11-22T09:43:34;15.10;;;12.30;;
9997;SDS011;5038;53.064;8.624;2023-11-22T09:46:03;12.27;;;11.03;;
9997;SDS011;5038;53.064;8.624;2023-11-22T09:48:31;12.70;;;10.97;;
9997;SDS011;5038;53.064;8.624;2023-11-22T09:51:03;14.07;;;11.57;;
9997;SDS011;5038;53.064;8.624;2023-11-22T09:53:36;13.03;;;11.37;;
9997;SDS011;5038;53.064;8.624;2023-11-22T09:56:12;16.80;;;11.30;;
9997;SDS011;5038;53.064;8.624;2023-11-22T09:58:41;13.97;;;10.73;;
9997;SDS011;5038;53.064;8.624;2023-11-22T10:01:11;12.20;;;10.27;;
9997;SDS011;5038;53.064;8.624;2023-11-22T10:03:39;13.33;;;11.93;;
9997;SDS011;5038;53.064;8.624;2023-11-22T10:06:10;13.03;;;11.57;;
9997;SDS011;5038;53.064;8.624;2023-11-22T10:08:38;14.30;;;11.77;;
9997;SDS011;5038;53.064;8.624;2023-11-22T10:11:07;14.23;;;12.07;;
9997;SDS011;5038;53.064;8.624;2023-11-22T10:13:36;12.90;;;10.60;;
9997;SDS011;5038;53.064;8.624;2023-11-22T10:16:09;10.53;;;9.43;;
9997;SDS011;5038;53.064;8.624;2023-11-22T10:18:39;14.27;;;10.10;;
9997;SDS011;5038;53.064;8.624;2023-11-22T10:21:20;11.83;;;9.23;;
9997;SDS011;5038;53.064;8.624;2023-11-22T10:23:50;10.40;;;9.30;;
9997;SDS011;5038;53.064;8.624;2023-11-22T10:26:20;10.03;;;9.00;;
9997;SDS011;5038;53.064;8.624;2023-11-22T10:28:50;11.40;;;9.70;;
9997;SDS011;5038;53.064;8.624;2023-11-22T10:31:19;9.53;;;8.57;;
9997;SDS011;5038;53.064;8.624;2023-11-22T10:33:49;9.90;;;8.17;;
9997;SDS011;5038;53.064;8.624;2023-11-22T10:36:21;11.40;;;9.30;;
9997;SDS011;5038;53.064;8.624;2023-11-22T10:38:50;9.73;;;8.03;;
9997;SDS011;5038;53.064;8.624;2023-11-22T10:41:19;8.67;;;7.87;;
9997;SDS011;5038;53.064;8.624;2023-11-22T10:43:50;10.17;;;9.07;;
9997;SDS011;5038;53.064;8.624;2023-11-22T10:46:20;11.70;;;9.57;;
9997;SDS011;5038;53.064;8.624;2023-11-22T10:48:52;9.00;;;8.10;;
9997;SDS011;5038;53.064;8.624;2023-11-22T10:51:22;10.57;;;7.90;;
9997;SDS011;5038;53.064;8.624;2023-11-22T10:53:55;9.33;;;8.27;;
9997;SDS011;5038;53.064;8.624;2023-11-22T10:56:24;8.63;;;7.80;;
9997;SDS011;5038;53.064;8.624;2023-11-22T10:58:55;8.50;;;7.40;;
9997;SDS011;5038;53.064;8.624;2023-11-22T11:01:25;8.87;;;7.83;;
9997;SDS011;5038;53.064;8.624;2023-11-22T11:04:01;8.67;;;7.87;;
9997;SDS011;5038;53.064;8.624;2023-11-22T11:06:38;8.03;;;6.90;;
9997;SDS011;5038;53.064;8.624;2023-11-22T11:09:09;7.60;;;6.90;;
9997;SDS011;5038;53.064;8.624;2023-11-22T11:11:41;8.17;;;7.37;;
9997;SDS011;5038;53.064;8.624;2023-11-22T11:14:10;8.90;;;8.10;;
9997;SDS011;5038;53.064;8.624;2023-11-22T11:16:40;6.90;;;6.20;;
9997;SDS011;5038;53.064;8.624;2023-11-22T11:19:14;6.87;;;5.90;;
9997;SDS011;5038;53.064;8.624;2023-11-22T11:21:46;6.53;;;5.50;;
9997;SDS011;5038;53.064;8.624;2023-11-22T11:24:16;7.33;;;6.63;;
9997;SDS011;5038;53.064;8.624;2023-11-22T11:26:47;6.20;;;5.60;;
9997;SDS011;5038;53.064;8.624;2023-11-22T11:29:31;7.10;;;6.40;;
9997;SDS011;5038;53.064;8.624;2023-11-22T11:32:02;7.73;;;5.73;;
9997;SDS011;5038;53.064;8.624;2023-11-22T11:34:31;6.53;;;5.93;;
9997;SDS011;5038;53.064;8.624;2023-11-22T11:37:00;5.93;;;5.33;;
9997;SDS011;5038;53.064;8.624;2023-11-22T11:39:29;6.10;;;5.60;;
9997;SDS011;5038;53.064;8.624;2023-11-22T11:42:07;6.20;;;5.60;;
9997;SDS011;5038;53.064;8.624;2023-11-22T11:45:02;5.60;;;4.80;;
9997;SDS011;5038;53.064;8.624;2023-11-22T11:47:33;5.60;;;5.07;;
9997;SDS011;5038;53.064;8.624;2023-11-22T11:50:02;5.90;;;5.03;;
9997;SDS011;5038;53.064;8.624;2023-11-22T11:52:32;5.10;;;4.60;;
9997;SDS011;5038;53.064;8.624;2023-11-22T11:55:02;5.33;;;4.83;;
9997;SDS011;5038;53.064;8.624;2023-11-22T11:57:31;4.83;;;4.40;;
9997;SDS011;5038;53.064;8.624;2023-11-22T11:59:59;5.10;;;4.60;;
9997;SDS011;5038;53.064;8.624;2023-11-22T12:02:36;4.47;;;4.00;;
9997;SDS011;5038;53.064;8.624;2023-11-22T12:05:05;4.43;;;4.00;;
9997;SDS011;5038;53.064;8.624;2023-11-22T12:07:37;4.30;;;3.90;;
9997;SDS011;5038;53.064;8.624;2023-11-22T12:10:05;4.47;;;4.00;;
9997;SDS011;5038;53.064;8.624;2023-11-22T12:12:34;4.57;;;4.17;;
9997;SDS011;5038;53.064;8.624;2023-11-22T12:15:03;5.37;;;4.07;;
9997;SDS011;5038;53.064;8.624;2023-11-22T12:17:33;4.50;;;4.10;;
9997;SDS011;5038;53.064;8.624;2023-11-22T12:20:08;5.00;;;4.30;;
9997;SDS011;5038;53.064;8.624;2023-11-22T12:22:39;3.93;;;3.53;;
9997;SDS011;5038;53.064;8.624;2023-11-22T12:25:08;5.07;;;4.57;;
9997;SDS011;5038;53.064;8.624;2023-11-22T12:27:38;3.43;;;3.07;;
9997;SDS011;5038;53.064;8.624;2023-11-22T12:30:08;3.17;;;2.97;;
9997;SDS011;5038;53.064;8.624;2023-11-22T12:32:40;2.73;;;2.40;;
9997;SDS011;5038;53.064;8.624;2023-11-22T12:35:09;2.80;;;2.40;;
9997;SDS011;5038;53.064;8.624;2023-11-22T12:37:39;2.73;;;1.90;;
9997;SDS011;5038;53.064;8.624;2023-11-22T12:40:09;2.77;;;2.37;;
9997;SDS011;5038;53.064;8.624;2023-11-22T12:42:48;3.50;;;2.27;;
9997;SDS011;5038;53.064;8.624;2023-11-22T12:45:20;2.80;;;2.47;;
9997;SDS011;5038;53.064;8.624;2023-11-22T12:47:50;3.97;;;2.33;;
9997;SDS011;5038;53.064;8.624;2023-11-22T12:50:29;3.07;;;2.67;;
9997;SDS011;5038;53.064;8.624;2023-11-22T12:53:02;3.60;;;3.27;;
9997;SDS011;5038;53.064;8.624;2023-11-22T12:55:37;2.60;;;2.37;;
9997;SDS011;5038;53.064;8.624;2023-11-22T12:58:07;3.40;;;2.73;;
9997;SDS011;5038;53.064;8.624;2023-11-22T13:00:35;3.57;;;2.70;;
9997;SDS011;5038;53.064;8.624;2023-11-22T13:03:05;2.73;;;2.47;;
9997;SDS011;5038;53.064;8.624;2023-11-22T13:05:34;3.40;;;3.00;;
9997;SDS011;5038;53.064;8.624;2023-11-22T13:08:04;3.07;;;2.63;;
9997;SDS011;5038;53.064;8.624;2023-11-22T13:10:32;2.00;;;1.77;;
9997;SDS011;5038;53.064;8.624;2023-11-22T13:13:02;2.50;;;2.30;;
9997;SDS011;5038;53.064;8.624;2023-11-22T13:15:30;2.80;;;2.37;;
9997;SDS011;5038;53.064;8.624;2023-11-22T13:17:58;4.10;;;2.47;;
9997;SDS011;5038;53.064;8.624;2023-11-22T13:20:27;2.87;;;2.47;;
9997;SDS011;5038;53.064;8.624;2023-11-22T13:22:55;3.03;;;2.73;;
9997;SDS011;5038;53.064;8.624;2023-11-22T13:25:27;2.50;;;2.30;;
9997;SDS011;5038;53.064;8.624;2023-11-22T13:27:56;2.67;;;2.37;;
9997;SDS011;5038;53.064;8.624;2023-11-22T13:30:26;3.17;;;2.60;;
9997;SDS011;5038;53.064;8.624;2023-11-22T13:32:55;2.93;;;2.63;;
9997;SDS011;5038;53.064;8.624;2023-11-22T13:35:25;3.40;;;3.10;;
9997;SDS011;5038;53.064;8.624;2023-11-22T13:37:57;4.00;;;3.50;;
9997;SDS011;5038;53.064;8.624;2023-11-22T13:40:29;3.67;;;3.37;;
9997;SDS011;5038;53.064;8.624;2023-11-22T13:42:57;4.57;;;3.50;;
9997;SDS011;5038;53.064;8.624;2023-11-22T13:45:26;3.90;;;3.50;;
9997;SDS011;5038;53.064;8.624;2023-11-22T13:47:55;4.90;;;3.43;;
9997;SDS011;5038;53.064;8.624;2023-11-22T13:50:30;3.60;;;3.23;;
9997;SDS011;5038;53.064;8.624;2023-11-22T13:52:58;4.73;;;4.17;;
9997;SDS011;5038;53.064;8.624;2023-11-22T13:55:26;4.27;;;3.87;;
9997;SDS011;5038;53.064;8.624;2023-11-22T13:57:56;7.37;;;5.83;;
9997;SDS011;5038;53.064;8.624;2023-11-22T14:00:27;4.83;;;4.37;;
9997;SDS011;5038;53.064;8.624;2023-11-22T14:03:00;5.37;;;4.70;;
9997;SDS011;5038;53.064;8.624;2023-11-22T14:05:33;4.73;;;4.10;;
9997;SDS011;5038;53.064;8.624;2023-11-22T14:08:05;5.40;;;4.90;;
9997;SDS011;5038;53.064;8.624;2023-11-22T14:10:35;5.17;;;4.60;;
9997;SDS011;5038;53.064;8.624;2023-11-22T14:13:03;4.73;;;4.20;;
9997;SDS011;5038;53.064;8.624;2023-11-22T14:15:32;5.27;;;4.70;;
9997;SDS011;5038;53.064;8.624;2023-11-22T14:18:00;4.77;;;4.37;;
9997;SDS011;5038;53.064;8.624;2023-11-22T14:20:29;5.60;;;5.00;;
9997;SDS011;5038;53.064;8.624;2023-11-22T14:23:01;5.73;;;4.53;;
9997;SDS011;5038;53.064;8.624;2023-11-22T14:25:29;4.93;;;4.40;;
9997;SDS011;5038;53.064;8.624;2023-11-22T14:27:59;6.13;;;4.50;;
9997;SDS011;5038;53.064;8.624;2023-11-22T14:30:27;4.00;;;3.43;;
9997;SDS011;5038;53.064;8.624;2023-11-22T14:33:01;5.90;;;4.33;;
9997;SDS011;5038;53.064;8.624;2023-11-22T14:35:33;4.87;;;4.30;;
9997;SDS011;5038;53.064;8.624;2023-11-22T14:38:03;4.70;;;4.10;;
9997;SDS011;5038;53.064;8.624;2023-11-22T14:40:33;4.87;;;4.27;;
9997;SDS011;5038;53.064;8.624;2023-11-22T14:43:05;5.00;;;3.87;;
9997;SDS011;5038;53.064;8.624;2023-11-22T14:45:34;11.30;;;8.27;;
9997;SDS011;5038;53.064;8.624;2023-11-22T14:48:03;7.00;;;5.80;;
9997;SDS011;5038;53.064;8.624;2023-11-22T14:50:33;5.90;;;4.53;;
9997;SDS011;5038;53.064;8.624;2023-11-22T14:53:02;5.80;;;4.17;;
9997;SDS011;5038;53.064;8.624;2023-11-22T14:55:30;8.37;;;4.63;;
9997;SDS011;5038;53.064;8.624;2023-11-22T14:58:00;6.00;;;5.13;;
9997;SDS011;5038;53.064;8.624;2023-11-22T15:00:31;5.13;;;4.50;;
9997;SDS011;5038;53.064;8.624;2023-11-22T15:02:59;4.77;;;3.93;;
9997;SDS011;5038;53.064;8.624;2023-11-22T15:05:29;4.73;;;3.80;;
9997;SDS011;5038;53.064;8.624;2023-11-22T15:07:57;5.00;;;3.47;;
9997;SDS011;5038;53.064;8.624;2023-11-22T15:10:26;4.47;;;4.07;;
9997;SDS011;5038;53.064;8.624;2023-11-22T15:12:54;6.53;;;4.67;;